createdAt,value
2023-03-15T00:01:19.838Z,98682.87
2023-03-15T00:03:47.876Z,98684.88
2023-03-15T00:06:15.805Z,98689.31
2023-03-15T00:08:47.391Z,98698.69
2023-03-15T00:11:18.837Z,98702.47
2023-03-15T00:13:47.359Z,98691.06
2023-03-15T00:16:18.659Z,98704.78
2023-03-15T00:18:47.202Z,98712.53
2023-03-15T00:21:15.416Z,98714.41
2023-03-15T00:23:42.822Z,98718.88
2023-03-15T00:26:10.461Z,98730.63
2023-03-15T00:28:38.251Z,98729.13
2023-03-15T00:31:14.788Z,98722.25
2023-03-15T00:33:42.710Z,98722.19
2023-03-15T00:36:10.806Z,98718.00
2023-03-15T00:38:39.520Z,98718.09
2023-03-15T00:41:08.801Z,98712.91
2023-03-15T00:43:36.375Z,98708.75
2023-03-15T00:46:04.637Z,98703.63
2023-03-15T00:48:32.897Z,98694.00
2023-03-15T00:51:04.337Z,98699.41
2023-03-15T00:53:32.482Z,98677.06
2023-03-15T00:56:04.621Z,98682.59
2023-03-15T00:58:32.317Z,98684.72
2023-03-15T01:01:00.757Z,98689.75
2023-03-15T01:03:28.693Z,98679.75
2023-03-15T01:05:56.506Z,98692.19
2023-03-15T01:08:24.160Z,98689.06
2023-03-15T01:10:51.528Z,98698.31
2023-03-15T01:13:19.192Z,98694.25
2023-03-15T01:15:47.829Z,98691.94
2023-03-15T01:18:15.311Z,98691.94
2023-03-15T01:20:44.856Z,98689.75
2023-03-15T01:23:12.521Z,98681.84
2023-03-15T01:25:40.565Z,98697.34
2023-03-15T01:28:08.255Z,98698.59
2023-03-15T01:30:35.951Z,98692.22
2023-03-15T01:33:03.875Z,98692.06
2023-03-15T01:35:31.583Z,98688.66
2023-03-15T01:37:59.223Z,98690.81
2023-03-15T01:40:27.229Z,98693.53
2023-03-15T01:43:04.265Z,98686.44
2023-03-15T01:45:59.688Z,98692.03
2023-03-15T01:48:33.884Z,98702.53
2023-03-15T01:51:04.895Z,98693.91
2023-03-15T01:53:33.069Z,98695.03
2023-03-15T01:56:01.260Z,98704.06
2023-03-15T01:58:29.712Z,98705.56
2023-03-15T02:00:57.670Z,98705.22
2023-03-15T02:03:36.753Z,98699.84
2023-03-15T02:06:07.514Z,98697.37
2023-03-15T02:08:41.344Z,98698.63
2023-03-15T02:11:08.877Z,98692.72
2023-03-15T02:13:36.640Z,98701.19
2023-03-15T02:16:06.984Z,98698.69
2023-03-15T02:18:37.616Z,98707.78
2023-03-15T02:21:15.745Z,98708.13
2023-03-15T02:23:44.338Z,98708.84
2023-03-15T02:26:26.178Z,98703.31
2023-03-15T02:28:54.400Z,98705.00
2023-03-15T02:31:22.039Z,98705.19
2023-03-15T02:33:51.608Z,98698.13
2023-03-15T02:36:24.488Z,98702.69
2023-03-15T02:38:52.514Z,98680.78
2023-03-15T02:41:28.589Z,98696.47
2023-03-15T02:44:00.332Z,98700.56
2023-03-15T02:46:28.457Z,98699.44
2023-03-15T02:48:55.962Z,98702.97
2023-03-15T02:51:24.726Z,98712.84
2023-03-15T02:53:52.354Z,98717.16
2023-03-15T02:56:20.121Z,98713.06
2023-03-15T02:58:47.801Z,98711.13
2023-03-15T03:01:16.926Z,98704.72
2023-03-15T03:03:46.539Z,98705.78
2023-03-15T03:06:15.923Z,98697.47
2023-03-15T03:08:47.191Z,98699.75
2023-03-15T03:11:15.784Z,98705.53
2023-03-15T03:13:43.758Z,98709.00
2023-03-15T03:16:11.948Z,98700.19
2023-03-15T03:18:42.165Z,98701.09
2023-03-15T03:21:09.647Z,98696.72
2023-03-15T03:23:37.358Z,98698.69
2023-03-15T03:26:16.567Z,98697.63
2023-03-15T03:28:46.364Z,98702.63
2023-03-15T03:31:25.994Z,98701.53
2023-03-15T03:33:55.854Z,98698.13
2023-03-15T03:36:25.604Z,98694.47
2023-03-15T03:38:53.738Z,98684.38
2023-03-15T03:41:21.538Z,98693.16
2023-03-15T03:43:49.120Z,98683.94
2023-03-15T03:46:16.856Z,98690.03
2023-03-15T03:48:45.884Z,98684.88
2023-03-15T03:51:13.324Z,98684.44
2023-03-15T03:53:40.785Z,98685.50
2023-03-15T03:56:08.737Z,98684.00
2023-03-15T03:58:36.351Z,98677.28
2023-03-15T04:01:05.168Z,98682.22
2023-03-15T04:03:33.241Z,98690.94
2023-03-15T04:06:02.313Z,98696.50
2023-03-15T04:08:29.771Z,98695.31
2023-03-15T04:10:57.892Z,98707.75
2023-03-15T04:13:25.899Z,98725.66
2023-03-15T04:15:57.762Z,98728.31
2023-03-15T04:18:27.773Z,98737.84
2023-03-15T04:20:56.066Z,98749.94
2023-03-15T04:23:23.909Z,98753.72
2023-03-15T04:25:52.726Z,98756.41
2023-03-15T04:28:22.730Z,98754.59
2023-03-15T04:30:50.580Z,98769.00
2023-03-15T04:33:19.300Z,98762.12
2023-03-15T04:35:47.148Z,98773.47
2023-03-15T04:38:15.926Z,98772.56
2023-03-15T04:40:43.833Z,98788.09
2023-03-15T04:43:11.501Z,98790.06
2023-03-15T04:45:39.258Z,98787.63
2023-03-15T04:48:07.336Z,98795.34
2023-03-15T04:50:35.378Z,98794.91
2023-03-15T04:53:03.954Z,98814.19
2023-03-15T04:55:34.156Z,98822.13
2023-03-15T04:58:04.465Z,98823.75
2023-03-15T05:00:32.176Z,98834.19
2023-03-15T05:03:00.183Z,98824.81
2023-03-15T05:05:29.355Z,98835.31
2023-03-15T05:07:56.910Z,98827.66
2023-03-15T05:10:25.403Z,98840.66
2023-03-15T05:12:53.080Z,98828.69
2023-03-15T05:15:20.831Z,98826.87
2023-03-15T05:17:49.293Z,98820.78
2023-03-15T05:20:17.012Z,98819.22
2023-03-15T05:22:45.928Z,98820.09
2023-03-15T05:25:15.348Z,98827.84
2023-03-15T05:27:46.364Z,98820.94
2023-03-15T05:30:16.162Z,98823.69
2023-03-15T05:32:44.649Z,98821.94
2023-03-15T05:35:13.303Z,98824.38
2023-03-15T05:37:42.322Z,98826.66
2023-03-15T05:40:11.440Z,98825.72
2023-03-15T05:42:40.003Z,98819.87
2023-03-15T05:45:08.617Z,98816.91
2023-03-15T05:47:36.565Z,98818.63
2023-03-15T05:50:05.054Z,98815.31
2023-03-15T05:52:33.142Z,98808.62
2023-03-15T05:55:02.422Z,98811.94
2023-03-15T05:57:30.854Z,98816.81
2023-03-15T05:59:59.108Z,98825.44
2023-03-15T06:02:26.608Z,98821.00
2023-03-15T06:04:55.216Z,98822.59
2023-03-15T06:07:22.857Z,98816.59
2023-03-15T06:09:52.055Z,98822.69
2023-03-15T06:12:20.119Z,98824.56
2023-03-15T06:14:47.954Z,98828.00
2023-03-15T06:17:15.416Z,98831.41
2023-03-15T06:19:43.549Z,98815.81
2023-03-15T06:22:10.996Z,98835.75
2023-03-15T06:24:38.518Z,98827.87
2023-03-15T06:27:06.289Z,98838.44
2023-03-15T06:29:35.483Z,98836.66
2023-03-15T06:32:03.705Z,98857.31
2023-03-15T06:34:31.620Z,98838.34
2023-03-15T06:36:59.232Z,98842.53
2023-03-15T06:39:26.628Z,98843.16
2023-03-15T06:41:57.357Z,98834.56
2023-03-15T06:44:25.802Z,98830.38
2023-03-15T06:46:53.542Z,98836.31
2023-03-15T06:49:21.280Z,98820.84
2023-03-15T06:51:49.690Z,98842.22
2023-03-15T06:54:17.169Z,98840.69
2023-03-15T06:56:44.851Z,98835.19
2023-03-15T06:59:12.237Z,98853.25
2023-03-15T07:01:39.734Z,98859.28
2023-03-15T07:04:08.456Z,98857.53
2023-03-15T07:06:36.177Z,98871.56
2023-03-15T07:09:05.288Z,98858.88
2023-03-15T07:11:33.403Z,98873.37
2023-03-15T07:14:01.022Z,98883.72
2023-03-15T07:16:28.350Z,98883.06
2023-03-15T07:18:56.580Z,98884.75
2023-03-15T07:21:24.058Z,98887.50
2023-03-15T07:23:51.862Z,98888.44
2023-03-15T07:26:19.483Z,98908.28
2023-03-15T07:28:46.985Z,98899.62
2023-03-15T07:31:14.497Z,98888.53
2023-03-15T07:33:42.277Z,98911.78
2023-03-15T07:36:09.952Z,98907.41
2023-03-15T07:38:37.404Z,98908.22
2023-03-15T07:41:06.429Z,98919.41
2023-03-15T07:43:34.470Z,98916.81
2023-03-15T07:46:06.873Z,98929.00
2023-03-15T07:48:34.569Z,98922.94
2023-03-15T07:51:02.074Z,98929.91
2023-03-15T07:53:29.958Z,98924.78
2023-03-15T07:55:57.643Z,98927.34
2023-03-15T07:58:25.049Z,98930.00
2023-03-15T08:00:55.368Z,98925.69
2023-03-15T08:03:24.609Z,98929.91
2023-03-15T08:05:52.084Z,98930.66
2023-03-15T08:08:19.847Z,98939.34
2023-03-15T08:10:47.536Z,98948.75
2023-03-15T08:13:14.966Z,98935.09
2023-03-15T08:15:45.739Z,98936.84
2023-03-15T08:18:14.130Z,98938.47
2023-03-15T08:20:41.604Z,98944.59
2023-03-15T08:23:09.265Z,98942.00
2023-03-15T08:25:40.708Z,98940.25
2023-03-15T08:28:08.518Z,98942.69
2023-03-15T08:30:36.080Z,98935.03
2023-03-15T08:33:03.975Z,98954.19
2023-03-15T08:35:33.091Z,98959.31
2023-03-15T08:38:02.750Z,98956.63
2023-03-15T08:40:31.237Z,98948.81
2023-03-15T08:42:59.638Z,98957.50
2023-03-15T08:45:27.229Z,98958.56
2023-03-15T08:47:59.096Z,98962.88
2023-03-15T08:50:27.566Z,98967.19
2023-03-15T08:52:55.653Z,98966.28
2023-03-15T08:55:23.314Z,98999.84
2023-03-15T08:57:50.740Z,98988.69
2023-03-15T09:00:22.897Z,98996.47
2023-03-15T09:02:55.099Z,99006.78
2023-03-15T09:05:24.121Z,99008.53
2023-03-15T09:07:53.168Z,99009.34
2023-03-15T09:10:22.096Z,99027.47
2023-03-15T09:12:52.202Z,99024.00
2023-03-15T09:15:19.738Z,99025.72
2023-03-15T09:17:49.557Z,99026.56
2023-03-15T09:20:19.218Z,99030.94
2023-03-15T09:22:57.146Z,99046.50
2023-03-15T09:25:25.600Z,99041.34
2023-03-15T09:27:53.430Z,99044.72
2023-03-15T09:30:21.153Z,99049.91
2023-03-15T09:32:49.177Z,99046.47
2023-03-15T09:35:19.002Z,99060.28
2023-03-15T09:37:47.555Z,99070.63
2023-03-15T09:40:17.885Z,99074.09
2023-03-15T09:42:57.047Z,99074.00
2023-03-15T09:45:28.402Z,99075.75
2023-03-15T09:48:33.608Z,99074.88
2023-03-15T09:51:40.098Z,99074.91
2023-03-15T09:54:13.508Z,99068.06
2023-03-15T09:56:58.716Z,99069.75
2023-03-15T09:59:30.718Z,99068.03
2023-03-15T10:01:59.431Z,99070.63
2023-03-15T10:04:34.872Z,99071.50
2023-03-15T10:07:03.530Z,99070.56
2023-03-15T10:09:35.494Z,99075.75
2023-03-15T10:12:10.906Z,99085.28
2023-03-15T10:14:59.521Z,99080.06
2023-03-15T10:17:40.520Z,99089.44
2023-03-15T10:20:14.040Z,99084.34
2023-03-15T10:22:51.231Z,99087.69
2023-03-15T10:25:26.271Z,99083.22
2023-03-15T10:27:59.726Z,99094.44
2023-03-15T10:30:30.105Z,99095.41
2023-03-15T10:33:03.259Z,99090.09
2023-03-15T10:35:32.151Z,99103.91
2023-03-15T10:37:59.839Z,99098.72
2023-03-15T10:40:51.755Z,99105.88
2023-03-15T10:43:32.011Z,99102.34
2023-03-15T10:46:01.225Z,99108.38
2023-03-15T10:48:31.559Z,99106.50
2023-03-15T10:51:19.589Z,99116.94
2023-03-15T10:54:06.818Z,99125.56
2023-03-15T10:57:02.096Z,99130.75
2023-03-15T10:59:32.454Z,99136.84
2023-03-15T11:02:12.077Z,99129.28
2023-03-15T11:05:10.087Z,99122.22
2023-03-15T11:07:37.466Z,99134.22
2023-03-15T11:10:06.830Z,99141.31
2023-03-15T11:12:35.091Z,99139.50
2023-03-15T11:15:15.375Z,99139.53
2023-03-15T11:17:45.929Z,99142.19
2023-03-15T11:20:30.400Z,99139.50
2023-03-15T11:23:00.052Z,99149.81
2023-03-15T11:25:31.393Z,99149.00
2023-03-15T11:28:00.096Z,99135.25
2023-03-15T11:30:31.276Z,99150.00
2023-03-15T11:33:05.293Z,99142.25
2023-03-15T11:35:36.378Z,99152.53
2023-03-15T11:38:15.583Z,99154.13
2023-03-15T11:40:45.478Z,99157.56
2023-03-15T11:43:22.214Z,99148.78
2023-03-15T11:45:59.149Z,99142.75
2023-03-15T11:48:42.609Z,99149.72
2023-03-15T11:51:11.808Z,99145.22
2023-03-15T11:53:50.166Z,99157.31
2023-03-15T11:56:29.994Z,99151.38
2023-03-15T11:59:12.896Z,99167.94
2023-03-15T12:01:46.070Z,99170.47
2023-03-15T12:04:32.173Z,99166.06
2023-03-15T12:07:03.379Z,99173.75
2023-03-15T12:09:36.218Z,99180.66
2023-03-15T12:12:23.854Z,99176.31
2023-03-15T12:15:36.022Z,99178.19
2023-03-15T12:18:07.487Z,99172.09
2023-03-15T12:20:42.904Z,99180.66
2023-03-15T12:23:18.580Z,99180.59
2023-03-15T12:25:55.283Z,99175.47
2023-03-15T12:28:45.340Z,99173.00
2023-03-15T12:31:14.150Z,99175.63
2023-03-15T12:33:57.729Z,99166.00
2023-03-15T12:36:37.246Z,99171.19
2023-03-15T12:39:13.966Z,99168.34
2023-03-15T12:41:44.259Z,99167.25
2023-03-15T12:44:25.387Z,99181.91
2023-03-15T12:46:54.932Z,99184.63
2023-03-15T12:49:25.243Z,99189.06
2023-03-15T12:51:59.477Z,99180.47
2023-03-15T12:54:33.096Z,99190.84
2023-03-15T12:57:03.254Z,99198.59
2023-03-15T12:59:36.103Z,99180.56
2023-03-15T13:02:43.274Z,99175.47
2023-03-15T13:05:17.339Z,99203.22
2023-03-15T13:07:52.143Z,99190.00
2023-03-15T13:10:40.643Z,99194.47
2023-03-15T13:13:17.368Z,99204.91
2023-03-15T13:15:59.028Z,99212.78
2023-03-15T13:18:27.276Z,99203.97
2023-03-15T13:21:10.113Z,99224.78
2023-03-15T13:23:37.895Z,99229.84
2023-03-15T13:26:43.210Z,99234.06
2023-03-15T13:29:15.075Z,99233.31
2023-03-15T13:31:43.788Z,99234.28
2023-03-15T13:34:16.849Z,99236.66
2023-03-15T13:36:49.441Z,99235.69
2023-03-15T13:39:23.400Z,99236.72
2023-03-15T13:42:00.180Z,99244.63
2023-03-15T13:44:29.150Z,99250.72
2023-03-15T13:46:57.488Z,99233.28
2023-03-15T13:49:25.854Z,99242.19
2023-03-15T13:51:54.105Z,99246.56
2023-03-15T13:54:26.967Z,99254.16
2023-03-15T13:57:07.348Z,99260.97
2023-03-15T13:59:52.701Z,99267.84
2023-03-15T14:02:38.496Z,99268.03
2023-03-15T14:05:13.357Z,99265.56
2023-03-15T14:07:46.938Z,99282.91
2023-03-15T14:10:32.196Z,99259.59
2023-03-15T14:13:15.625Z,99283.81
2023-03-15T14:15:44.364Z,99283.78
2023-03-15T14:18:11.620Z,99272.59
2023-03-15T14:20:48.067Z,99291.56
2023-03-15T14:23:18.120Z,99291.63
2023-03-15T14:25:53.017Z,99295.09
2023-03-15T14:28:21.277Z,99296.78
2023-03-15T14:30:57.311Z,99303.62
2023-03-15T14:33:41.914Z,99295.88
2023-03-15T14:36:25.972Z,99306.34
2023-03-15T14:38:55.232Z,99300.28
2023-03-15T14:41:31.289Z,99315.91
2023-03-15T14:44:01.037Z,99304.66
2023-03-15T14:46:29.984Z,99308.97
2023-03-15T14:48:57.704Z,99317.53
2023-03-15T14:51:26.909Z,99320.16
2023-03-15T14:53:56.236Z,99337.47
2023-03-15T14:56:24.870Z,99315.06
2023-03-15T14:58:55.441Z,99343.56
2023-03-15T15:01:25.126Z,99337.50
2023-03-15T15:03:55.293Z,99334.94
2023-03-15T15:06:22.719Z,99330.56
2023-03-15T15:08:52.905Z,99347.84
2023-03-15T15:11:20.603Z,99346.16
2023-03-15T15:13:47.979Z,99350.50
2023-03-15T15:16:15.446Z,99352.16
2023-03-15T15:18:43.145Z,99364.28
2023-03-15T15:21:21.937Z,99367.78
2023-03-15T15:23:59.172Z,99363.38
2023-03-15T15:26:28.801Z,99362.53
2023-03-15T15:28:56.881Z,99373.78
2023-03-15T15:31:25.969Z,99370.31
2023-03-15T15:33:54.518Z,99372.91
2023-03-15T15:36:36.649Z,99374.66
2023-03-15T15:39:07.476Z,99391.06
2023-03-15T15:41:35.324Z,99396.25
2023-03-15T15:44:03.048Z,99393.72
2023-03-15T15:46:30.617Z,99401.50
2023-03-15T15:48:58.785Z,99393.69
2023-03-15T15:51:28.903Z,99396.25
2023-03-15T15:54:00.784Z,99408.41
2023-03-15T15:56:44.159Z,99409.25
2023-03-15T15:59:14.873Z,99413.56
2023-03-15T16:01:58.859Z,99422.22
2023-03-15T16:04:27.409Z,99422.25
2023-03-15T16:06:58.573Z,99430.88
2023-03-15T16:09:28.237Z,99421.31
2023-03-15T16:11:55.918Z,99434.34
2023-03-15T16:14:23.332Z,99436.91
2023-03-15T16:16:50.771Z,99435.22
2023-03-15T16:19:18.446Z,99438.69
2023-03-15T16:21:47.914Z,99444.72
2023-03-15T16:24:25.333Z,99448.16
2023-03-15T16:26:58.996Z,99456.78
2023-03-15T16:29:38.699Z,99456.81
2023-03-15T16:32:16.893Z,99465.41
2023-03-15T16:34:47.727Z,99462.00
2023-03-15T16:37:22.684Z,99466.28
2023-03-15T16:39:51.007Z,99472.28
2023-03-15T16:42:19.176Z,99472.28
2023-03-15T16:44:46.809Z,99469.69
2023-03-15T16:47:14.177Z,99474.06
2023-03-15T16:49:41.894Z,99478.34
2023-03-15T16:52:11.749Z,99486.06
2023-03-15T16:54:41.577Z,99484.38
2023-03-15T16:57:21.885Z,99484.38
2023-03-15T16:59:49.936Z,99499.09
2023-03-15T17:02:20.271Z,99499.13
2023-03-15T17:04:47.790Z,99512.03
2023-03-15T17:07:15.796Z,99515.47
2023-03-15T17:09:45.774Z,99513.75
2023-03-15T17:12:33.376Z,99519.81
2023-03-15T17:15:01.145Z,99531.88
2023-03-15T17:17:31.398Z,99526.53
2023-03-15T17:19:59.794Z,99536.75
2023-03-15T17:22:27.552Z,99542.09
2023-03-15T17:24:54.993Z,99534.25
2023-03-15T17:27:27.514Z,99550.81
2023-03-15T17:29:55.101Z,99542.06
2023-03-15T17:32:22.665Z,99543.78
2023-03-15T17:34:50.145Z,99550.53
2023-03-15T17:37:18.652Z,99550.72
2023-03-15T17:39:47.643Z,99556.00
2023-03-15T17:42:15.389Z,99555.12
2023-03-15T17:44:43.072Z,99573.22
2023-03-15T17:47:13.727Z,99580.97
2023-03-15T17:49:41.171Z,99579.16
2023-03-15T17:52:13.058Z,99589.53
2023-03-15T17:54:40.954Z,99592.22
2023-03-15T17:57:11.788Z,99600.00
2023-03-15T17:59:39.458Z,99594.75
2023-03-15T18:02:13.754Z,99612.03
2023-03-15T18:04:41.694Z,99608.47
2023-03-15T18:07:09.090Z,99612.06
2023-03-15T18:09:36.440Z,99609.41
2023-03-15T18:12:04.206Z,99606.81
2023-03-15T18:14:36.974Z,99618.09
2023-03-15T18:17:05.339Z,99616.41
2023-03-15T18:19:32.796Z,99627.59
2023-03-15T18:22:00.216Z,99630.94
2023-03-15T18:24:27.878Z,99629.25
2023-03-15T18:26:55.256Z,99630.94
2023-03-15T18:29:23.097Z,99630.81
2023-03-15T18:31:50.868Z,99634.25
2023-03-15T18:34:21.815Z,99651.75
2023-03-15T18:36:49.442Z,99645.59
2023-03-15T18:39:17.725Z,99646.47
2023-03-15T18:41:45.122Z,99650.03
2023-03-15T18:44:12.466Z,99660.47
2023-03-15T18:46:43.744Z,99652.81
2023-03-15T18:49:11.096Z,99658.87
2023-03-15T18:51:38.480Z,99661.56
2023-03-15T18:54:06.169Z,99657.13
2023-03-15T18:56:35.769Z,99662.31
2023-03-15T18:59:03.511Z,99671.78
2023-03-15T19:01:32.339Z,99664.88
2023-03-15T19:03:59.751Z,99669.16
2023-03-15T19:06:27.478Z,99676.13
2023-03-15T19:08:55.223Z,99667.56
2023-03-15T19:11:24.399Z,99679.72
2023-03-15T19:13:51.829Z,99681.31
2023-03-15T19:16:23.278Z,99683.94
2023-03-15T19:18:51.918Z,99690.91
2023-03-15T19:21:20.121Z,99684.06
2023-03-15T19:23:47.636Z,99689.19
2023-03-15T19:26:15.073Z,99694.41
2023-03-15T19:28:42.892Z,99702.91
2023-03-15T19:31:11.281Z,99700.44
2023-03-15T19:33:38.725Z,99700.16
2023-03-15T19:36:06.800Z,99702.81
2023-03-15T19:38:34.630Z,99708.75
2023-03-15T19:41:06.234Z,99714.09
2023-03-15T19:43:34.157Z,99709.63
2023-03-15T19:46:01.667Z,99726.16
2023-03-15T19:48:29.318Z,99731.44
2023-03-15T19:50:57.048Z,99723.62
2023-03-15T19:53:25.523Z,99730.34
2023-03-15T19:55:53.014Z,99733.84
2023-03-15T19:58:20.990Z,99739.97
2023-03-15T20:00:54.155Z,99742.25
2023-03-15T20:03:21.785Z,99742.84
2023-03-15T20:05:49.204Z,99747.19
2023-03-15T20:08:16.646Z,99749.72
2023-03-15T20:10:44.314Z,99755.41
2023-03-15T20:13:11.758Z,99749.50
2023-03-15T20:15:39.314Z,99757.09
2023-03-15T20:18:08.174Z,99767.59
2023-03-15T20:20:35.807Z,99763.25
2023-03-15T20:23:03.656Z,99768.12
2023-03-15T20:25:31.627Z,99781.06
2023-03-15T20:27:59.024Z,99771.78
2023-03-15T20:30:26.739Z,99777.03
2023-03-15T20:32:54.711Z,99775.13
2023-03-15T20:35:22.229Z,99778.19
2023-03-15T20:37:49.657Z,99775.72
2023-03-15T20:40:17.437Z,99779.94
2023-03-15T20:42:45.021Z,99779.16
2023-03-15T20:45:13.686Z,99775.88
2023-03-15T20:47:41.624Z,99774.72
2023-03-15T20:50:10.543Z,99779.19
2023-03-15T20:52:38.030Z,99774.94
2023-03-15T20:55:07.849Z,99779.34
2023-03-15T20:57:36.434Z,99779.28
2023-03-15T21:00:12.324Z,99783.38
2023-03-15T21:02:40.294Z,99785.91
2023-03-15T21:05:09.517Z,99785.78
2023-03-15T21:07:37.495Z,99786.88
2023-03-15T21:10:05.788Z,99780.13
2023-03-15T21:12:33.185Z,99782.81
2023-03-15T21:15:01.759Z,99771.66
2023-03-15T21:17:29.566Z,99780.47
2023-03-15T21:19:57.055Z,99776.06
2023-03-15T21:22:24.777Z,99779.50
2023-03-15T21:24:55.863Z,99782.94
2023-03-15T21:27:26.190Z,99777.91
2023-03-15T21:29:54.612Z,99784.69
2023-03-15T21:32:22.043Z,99777.75
2023-03-15T21:34:49.426Z,99779.53
2023-03-15T21:37:17.405Z,99781.44
2023-03-15T21:39:45.056Z,99783.81
2023-03-15T21:42:12.390Z,99782.94
2023-03-15T21:44:40.438Z,99787.97
2023-03-15T21:47:08.090Z,99789.75
2023-03-15T21:49:35.424Z,99789.78
2023-03-15T21:52:03.106Z,99796.84
2023-03-15T21:54:30.517Z,99791.53
2023-03-15T21:56:58.191Z,99783.94
2023-03-15T21:59:29.270Z,99791.84
2023-03-15T22:01:57.284Z,99791.00
2023-03-15T22:04:25.068Z,99796.78
2023-03-15T22:06:52.969Z,99799.09
2023-03-15T22:09:21.033Z,99800.63
2023-03-15T22:11:49.125Z,99800.09
2023-03-15T22:14:16.631Z,99800.88
2023-03-15T22:16:44.351Z,99797.00
2023-03-15T22:19:12.079Z,99797.09
2023-03-15T22:21:39.461Z,99804.56
2023-03-15T22:24:08.381Z,99798.72
2023-03-15T22:26:36.147Z,99808.69
2023-03-15T22:29:03.790Z,99805.38
2023-03-15T22:31:31.809Z,99797.28
2023-03-15T22:33:59.486Z,99809.75
2023-03-15T22:36:26.798Z,99811.56
2023-03-15T22:38:54.144Z,99814.16
2023-03-15T22:41:22.047Z,99821.09
2023-03-15T22:43:49.485Z,99815.66
2023-03-15T22:46:17.347Z,99825.22
2023-03-15T22:48:45.218Z,99824.09
2023-03-15T22:51:15.380Z,99824.78
2023-03-15T22:53:43.001Z,99825.91
2023-03-15T22:56:10.747Z,99831.28
2023-03-15T22:58:38.209Z,99840.13
2023-03-15T23:01:05.661Z,99840.28
2023-03-15T23:03:33.421Z,99843.09
2023-03-15T23:06:00.740Z,99842.94
2023-03-15T23:08:28.146Z,99847.59
2023-03-15T23:10:58.812Z,99830.88
2023-03-15T23:13:26.169Z,99844.47
2023-03-15T23:15:54.237Z,99847.94
2023-03-15T23:18:22.094Z,99848.22
2023-03-15T23:20:49.543Z,99856.72
2023-03-15T23:23:17.148Z,99861.16
2023-03-15T23:25:45.966Z,99864.13
2023-03-15T23:28:17.056Z,99867.59
2023-03-15T23:30:45.578Z,99866.97
2023-03-15T23:33:13.423Z,99863.97
2023-03-15T23:35:41.952Z,99868.47
2023-03-15T23:38:09.712Z,99873.44
2023-03-15T23:40:37.388Z,99880.69
2023-03-15T23:43:06.042Z,99877.13
2023-03-15T23:45:34.088Z,99882.81
2023-03-15T23:48:02.639Z,99881.34
2023-03-15T23:50:30.309Z,99880.81
2023-03-15T23:52:58.172Z,99883.69
2023-03-15T23:55:25.565Z,99903.44
2023-03-15T23:57:52.960Z,99891.84
